sensor_id;sensor_type;location;lat;lon;timestamp;P1;durP1;ratioP1;P2;durP2;ratioP2
7795;SDS011;3942;51.518;6.912;2023-04-03T00:00:03;9.43;;;6.32;;
7795;SDS011;3942;51.518;6.912;2023-04-03T00:05:08;11.15;;;7.18;;
7795;SDS011;3942;51.518;6.912;2023-04-03T00:10:11;13.27;;;8.30;;
7795;SDS011;3942;51.518;6.912;2023-04-03T00:15:15;12.88;;;6.88;;
7795;SDS011;3942;51.518;6.912;2023-04-03T00:20:18;10.73;;;6.95;;
7795;SDS011;3942;51.518;6.912;2023-04-03T00:25:20;9.38;;;7.15;;
7795;SDS011;3942;51.518;6.912;2023-04-03T00:30:23;12.50;;;6.65;;
7795;SDS011;3942;51.518;6.912;2023-04-03T00:35:26;12.40;;;6.97;;
7795;SDS011;3942;51.518;6.912;2023-04-03T00:40:32;10.85;;;6.93;;
7795;SDS011;3942;51.518;6.912;2023-04-03T00:45:36;11.70;;;7.00;;
7795;SDS011;3942;51.518;6.912;2023-04-03T00:50:41;13.15;;;7.05;;
7795;SDS011;3942;51.518;6.912;2023-04-03T00:55:45;13.65;;;6.57;;
7795;SDS011;3942;51.518;6.912;2023-04-03T01:00:50;7.45;;;5.60;;
7795;SDS011;3942;51.518;6.912;2023-04-03T01:05:58;13.13;;;6.28;;
7795;SDS011;3942;51.518;6.912;2023-04-03T01:11:01;10.65;;;5.20;;
7795;SDS011;3942;51.518;6.912;2023-04-03T01:16:02;7.60;;;3.80;;
7795;SDS011;3942;51.518;6.912;2023-04-03T01:26:42;8.60;;;4.00;;
7795;SDS011;3942;51.518;6.912;2023-04-03T01:31:47;8.20;;;3.55;;
7795;SDS011;3942;51.518;6.912;2023-04-03T01:36:51;9.20;;;2.85;;
7795;SDS011;3942;51.518;6.912;2023-04-03T01:41:53;7.35;;;3.58;;
7795;SDS011;3942;51.518;6.912;2023-04-03T01:46:56;8.75;;;2.13;;
7795;SDS011;3942;51.518;6.912;2023-04-03T01:51:58;5.05;;;2.05;;
7795;SDS011;3942;51.518;6.912;2023-04-03T01:57:00;7.65;;;2.38;;
7795;SDS011;3942;51.518;6.912;2023-04-03T02:02:03;4.60;;;1.90;;
7795;SDS011;3942;51.518;6.912;2023-04-03T02:07:06;4.88;;;2.38;;
7795;SDS011;3942;51.518;6.912;2023-04-03T02:12:08;6.43;;;2.10;;
7795;SDS011;3942;51.518;6.912;2023-04-03T02:17:11;5.63;;;1.95;;
7795;SDS011;3942;51.518;6.912;2023-04-03T02:22:13;5.90;;;2.05;;
7795;SDS011;3942;51.518;6.912;2023-04-03T02:27:15;4.53;;;1.95;;
7795;SDS011;3942;51.518;6.912;2023-04-03T02:32:18;5.38;;;1.85;;
7795;SDS011;3942;51.518;6.912;2023-04-03T02:37:20;2.88;;;1.08;;
7795;SDS011;3942;51.518;6.912;2023-04-03T02:42:22;2.38;;;1.45;;
7795;SDS011;3942;51.518;6.912;2023-04-03T02:47:25;5.85;;;1.65;;
7795;SDS011;3942;51.518;6.912;2023-04-03T02:52:27;6.20;;;1.90;;
7795;SDS011;3942;51.518;6.912;2023-04-03T02:57:29;5.82;;;1.92;;
7795;SDS011;3942;51.518;6.912;2023-04-03T03:02:32;7.43;;;2.20;;
7795;SDS011;3942;51.518;6.912;2023-04-03T03:07:34;4.30;;;1.85;;
7795;SDS011;3942;51.518;6.912;2023-04-03T03:12:36;7.47;;;2.05;;
7795;SDS011;3942;51.518;6.912;2023-04-03T03:17:39;2.78;;;1.52;;
7795;SDS011;3942;51.518;6.912;2023-04-03T03:22:41;5.85;;;2.15;;
7795;SDS011;3942;51.518;6.912;2023-04-03T03:27:42;10.07;;;3.90;;
7795;SDS011;3942;51.518;6.912;2023-04-03T03:32:47;4.45;;;2.13;;
7795;SDS011;3942;51.518;6.912;2023-04-03T03:37:48;9.45;;;2.40;;
7795;SDS011;3942;51.518;6.912;2023-04-03T03:42:50;3.53;;;1.67;;
7795;SDS011;3942;51.518;6.912;2023-04-03T03:47:53;3.90;;;1.75;;
7795;SDS011;3942;51.518;6.912;2023-04-03T03:52:55;4.78;;;1.83;;
7795;SDS011;3942;51.518;6.912;2023-04-03T03:57:57;7.80;;;3.53;;
7795;SDS011;3942;51.518;6.912;2023-04-03T04:03:01;5.78;;;2.00;;
7795;SDS011;3942;51.518;6.912;2023-04-03T04:08:03;4.47;;;1.80;;
7795;SDS011;3942;51.518;6.912;2023-04-03T04:13:05;8.35;;;2.50;;
7795;SDS011;3942;51.518;6.912;2023-04-03T04:18:08;4.55;;;1.77;;
7795;SDS011;3942;51.518;6.912;2023-04-03T04:23:10;4.63;;;1.80;;
7795;SDS011;3942;51.518;6.912;2023-04-03T04:28:12;6.95;;;2.50;;
7795;SDS011;3942;51.518;6.912;2023-04-03T04:33:15;9.35;;;2.20;;
7795;SDS011;3942;51.518;6.912;2023-04-03T04:38:17;10.07;;;2.63;;
7795;SDS011;3942;51.518;6.912;2023-04-03T04:43:19;4.57;;;1.98;;
7795;SDS011;3942;51.518;6.912;2023-04-03T04:48:22;4.38;;;1.60;;
7795;SDS011;3942;51.518;6.912;2023-04-03T04:53:24;8.05;;;2.58;;
7795;SDS011;3942;51.518;6.912;2023-04-03T04:58:26;4.88;;;2.03;;
7795;SDS011;3942;51.518;6.912;2023-04-03T05:03:31;10.93;;;2.67;;
7795;SDS011;3942;51.518;6.912;2023-04-03T05:08:33;12.00;;;3.47;;
7795;SDS011;3942;51.518;6.912;2023-04-03T05:13:35;7.38;;;1.75;;
7795;SDS011;3942;51.518;6.912;2023-04-03T05:18:38;9.32;;;3.10;;
7795;SDS011;3942;51.518;6.912;2023-04-03T05:23:40;8.13;;;1.98;;
7795;SDS011;3942;51.518;6.912;2023-04-03T05:28:42;4.10;;;2.08;;
7795;SDS011;3942;51.518;6.912;2023-04-03T05:33:45;6.10;;;2.38;;
7795;SDS011;3942;51.518;6.912;2023-04-03T05:38:47;9.95;;;2.10;;
7795;SDS011;3942;51.518;6.912;2023-04-03T05:43:49;9.13;;;3.00;;
7795;SDS011;3942;51.518;6.912;2023-04-03T05:48:53;3.33;;;1.67;;
7795;SDS011;3942;51.518;6.912;2023-04-03T05:53:56;13.02;;;3.55;;
7795;SDS011;3942;51.518;6.912;2023-04-03T05:59:02;8.20;;;2.10;;
7795;SDS011;3942;51.518;6.912;2023-04-03T06:04:05;14.23;;;4.15;;
7795;SDS011;3942;51.518;6.912;2023-04-03T06:09:08;8.60;;;2.92;;
7795;SDS011;3942;51.518;6.912;2023-04-03T06:14:10;5.57;;;2.20;;
7795;SDS011;3942;51.518;6.912;2023-04-03T06:19:14;13.48;;;4.25;;
7795;SDS011;3942;51.518;6.912;2023-04-03T06:24:16;5.60;;;1.98;;
7795;SDS011;3942;51.518;6.912;2023-04-03T06:29:19;3.20;;;1.75;;
7795;SDS011;3942;51.518;6.912;2023-04-03T06:34:23;5.45;;;2.53;;
7795;SDS011;3942;51.518;6.912;2023-04-03T06:39:24;18.58;;;7.80;;
7795;SDS011;3942;51.518;6.912;2023-04-03T06:44:27;9.52;;;4.88;;
7795;SDS011;3942;51.518;6.912;2023-04-03T06:49:30;10.55;;;3.65;;
7795;SDS011;3942;51.518;6.912;2023-04-03T06:54:32;10.70;;;2.83;;
7795;SDS011;3942;51.518;6.912;2023-04-03T06:59:35;5.10;;;2.40;;
7795;SDS011;3942;51.518;6.912;2023-04-03T07:04:38;7.50;;;2.45;;
7795;SDS011;3942;51.518;6.912;2023-04-03T07:09:40;10.80;;;3.00;;
7795;SDS011;3942;51.518;6.912;2023-04-03T07:14:43;6.80;;;2.80;;
7795;SDS011;3942;51.518;6.912;2023-04-03T07:19:46;4.95;;;2.10;;
7795;SDS011;3942;51.518;6.912;2023-04-03T07:24:48;10.00;;;2.40;;
7795;SDS011;3942;51.518;6.912;2023-04-03T07:29:50;5.63;;;2.35;;
7795;SDS011;3942;51.518;6.912;2023-04-03T07:34:53;5.07;;;1.70;;
7795;SDS011;3942;51.518;6.912;2023-04-03T07:39:55;8.57;;;2.47;;
7795;SDS011;3942;51.518;6.912;2023-04-03T07:44:58;8.27;;;2.95;;
7795;SDS011;3942;51.518;6.912;2023-04-03T07:50:01;11.38;;;3.28;;
7795;SDS011;3942;51.518;6.912;2023-04-03T07:55:03;7.05;;;2.60;;
7795;SDS011;3942;51.518;6.912;2023-04-03T08:00:06;6.70;;;2.53;;
7795;SDS011;3942;51.518;6.912;2023-04-03T08:05:11;6.93;;;2.40;;
7795;SDS011;3942;51.518;6.912;2023-04-03T08:10:13;3.88;;;1.88;;
7795;SDS011;3942;51.518;6.912;2023-04-03T08:15:16;6.57;;;2.03;;
7795;SDS011;3942;51.518;6.912;2023-04-03T08:20:19;4.40;;;1.83;;
7795;SDS011;3942;51.518;6.912;2023-04-03T08:25:21;10.60;;;1.83;;
7795;SDS011;3942;51.518;6.912;2023-04-03T08:30:23;7.15;;;1.80;;
7795;SDS011;3942;51.518;6.912;2023-04-03T08:35:26;3.85;;;1.92;;
7795;SDS011;3942;51.518;6.912;2023-04-03T08:40:28;2.53;;;1.27;;
7795;SDS011;3942;51.518;6.912;2023-04-03T08:51:22;6.80;;;2.88;;
7795;SDS011;3942;51.518;6.912;2023-04-03T08:56:25;4.43;;;1.60;;
7795;SDS011;3942;51.518;6.912;2023-04-03T09:01:29;6.70;;;2.95;;
7795;SDS011;3942;51.518;6.912;2023-04-03T09:06:35;2.95;;;1.40;;
7795;SDS011;3942;51.518;6.912;2023-04-03T09:11:41;6.72;;;1.92;;
7795;SDS011;3942;51.518;6.912;2023-04-03T09:16:48;5.30;;;1.60;;
7795;SDS011;3942;51.518;6.912;2023-04-03T09:21:57;3.30;;;1.52;;
7795;SDS011;3942;51.518;6.912;2023-04-03T09:27:03;4.28;;;1.50;;
7795;SDS011;3942;51.518;6.912;2023-04-03T09:32:12;4.97;;;1.73;;
7795;SDS011;3942;51.518;6.912;2023-04-03T09:37:34;4.78;;;1.88;;
7795;SDS011;3942;51.518;6.912;2023-04-03T09:42:40;5.30;;;1.60;;
7795;SDS011;3942;51.518;6.912;2023-04-03T09:47:43;1.30;;;0.82;;
7795;SDS011;3942;51.518;6.912;2023-04-03T09:52:47;2.70;;;1.20;;
7795;SDS011;3942;51.518;6.912;2023-04-03T09:57:51;2.92;;;1.27;;
7795;SDS011;3942;51.518;6.912;2023-04-03T10:02:54;3.40;;;1.10;;
7795;SDS011;3942;51.518;6.912;2023-04-03T10:08:15;2.15;;;0.90;;
7795;SDS011;3942;51.518;6.912;2023-04-03T10:13:23;3.00;;;0.85;;
7795;SDS011;3942;51.518;6.912;2023-04-03T10:18:28;2.50;;;1.05;;
7795;SDS011;3942;51.518;6.912;2023-04-03T10:23:40;4.18;;;1.23;;
7795;SDS011;3942;51.518;6.912;2023-04-03T10:28:48;3.90;;;1.38;;
7795;SDS011;3942;51.518;6.912;2023-04-03T10:33:56;6.40;;;0.82;;
7795;SDS011;3942;51.518;6.912;2023-04-03T10:39:04;1.27;;;0.73;;
7795;SDS011;3942;51.518;6.912;2023-04-03T10:44:13;4.05;;;1.60;;
7795;SDS011;3942;51.518;6.912;2023-04-03T10:49:26;2.80;;;1.23;;
7795;SDS011;3942;51.518;6.912;2023-04-03T10:54:35;2.10;;;0.90;;
7795;SDS011;3942;51.518;6.912;2023-04-03T10:59:41;3.33;;;1.52;;
7795;SDS011;3942;51.518;6.912;2023-04-03T11:04:46;3.03;;;1.50;;
7795;SDS011;3942;51.518;6.912;2023-04-03T11:09:53;2.67;;;1.20;;
7795;SDS011;3942;51.518;6.912;2023-04-03T11:14:57;4.40;;;1.90;;
7795;SDS011;3942;51.518;6.912;2023-04-03T11:20:01;2.63;;;1.30;;
7795;SDS011;3942;51.518;6.912;2023-04-03T11:25:15;5.40;;;1.98;;
7795;SDS011;3942;51.518;6.912;2023-04-03T11:30:23;6.00;;;1.92;;
7795;SDS011;3942;51.518;6.912;2023-04-03T11:35:29;3.90;;;1.23;;
7795;SDS011;3942;51.518;6.912;2023-04-03T11:40:33;2.88;;;1.45;;
7795;SDS011;3942;51.518;6.912;2023-04-03T11:45:37;3.72;;;1.42;;
7795;SDS011;3942;51.518;6.912;2023-04-03T11:50:41;3.42;;;1.50;;
7795;SDS011;3942;51.518;6.912;2023-04-03T11:55:58;4.60;;;1.42;;
7795;SDS011;3942;51.518;6.912;2023-04-03T12:01:02;7.88;;;1.15;;
7795;SDS011;3942;51.518;6.912;2023-04-03T12:11:59;3.60;;;1.50;;
7795;SDS011;3942;51.518;6.912;2023-04-03T12:17:01;3.65;;;1.50;;
7795;SDS011;3942;51.518;6.912;2023-04-03T12:22:05;4.63;;;1.60;;
7795;SDS011;3942;51.518;6.912;2023-04-03T12:27:26;2.05;;;1.10;;
7795;SDS011;3942;51.518;6.912;2023-04-03T12:32:40;2.95;;;1.15;;
7795;SDS011;3942;51.518;6.912;2023-04-03T12:37:49;4.47;;;2.53;;
7795;SDS011;3942;51.518;6.912;2023-04-03T12:43:01;3.17;;;1.00;;
7795;SDS011;3942;51.518;6.912;2023-04-03T12:48:06;2.55;;;0.95;;
7795;SDS011;3942;51.518;6.912;2023-04-03T12:53:15;3.33;;;1.67;;
7795;SDS011;3942;51.518;6.912;2023-04-03T12:58:22;4.15;;;1.40;;
7795;SDS011;3942;51.518;6.912;2023-04-03T13:03:26;2.10;;;1.48;;
7795;SDS011;3942;51.518;6.912;2023-04-03T13:08:29;1.60;;;0.98;;
7795;SDS011;3942;51.518;6.912;2023-04-03T13:13:32;4.93;;;1.77;;
7795;SDS011;3942;51.518;6.912;2023-04-03T13:18:36;4.05;;;1.33;;
7795;SDS011;3942;51.518;6.912;2023-04-03T13:23:39;6.00;;;1.70;;
7795;SDS011;3942;51.518;6.912;2023-04-03T13:28:44;4.80;;;1.50;;
7795;SDS011;3942;51.518;6.912;2023-04-03T13:33:52;5.82;;;1.10;;
7795;SDS011;3942;51.518;6.912;2023-04-03T13:38:58;4.57;;;1.60;;
7795;SDS011;3942;51.518;6.912;2023-04-03T13:44:24;1.95;;;1.25;;
7795;SDS011;3942;51.518;6.912;2023-04-03T13:49:31;2.10;;;1.30;;
7795;SDS011;3942;51.518;6.912;2023-04-03T13:54:37;4.20;;;1.85;;
7795;SDS011;3942;51.518;6.912;2023-04-03T13:59:41;5.97;;;1.35;;
7795;SDS011;3942;51.518;6.912;2023-04-03T14:04:45;1.65;;;0.95;;
7795;SDS011;3942;51.518;6.912;2023-04-03T14:09:53;2.97;;;1.30;;
7795;SDS011;3942;51.518;6.912;2023-04-03T14:14:56;5.20;;;1.60;;
7795;SDS011;3942;51.518;6.912;2023-04-03T14:19:59;6.90;;;1.58;;
7795;SDS011;3942;51.518;6.912;2023-04-03T14:25:01;5.05;;;2.17;;
7795;SDS011;3942;51.518;6.912;2023-04-03T14:30:06;4.38;;;2.22;;
7795;SDS011;3942;51.518;6.912;2023-04-03T14:35:09;2.80;;;1.13;;
7795;SDS011;3942;51.518;6.912;2023-04-03T14:40:12;2.60;;;1.48;;
7795;SDS011;3942;51.518;6.912;2023-04-03T14:45:18;4.57;;;1.35;;
7795;SDS011;3942;51.518;6.912;2023-04-03T14:50:21;6.20;;;1.40;;
7795;SDS011;3942;51.518;6.912;2023-04-03T14:55:24;2.75;;;1.38;;
7795;SDS011;3942;51.518;6.912;2023-04-03T15:00:27;7.10;;;1.77;;
7795;SDS011;3942;51.518;6.912;2023-04-03T15:05:30;3.33;;;1.38;;
7795;SDS011;3942;51.518;6.912;2023-04-03T15:10:32;3.97;;;1.70;;
7795;SDS011;3942;51.518;6.912;2023-04-03T15:15:35;3.22;;;1.70;;
7795;SDS011;3942;51.518;6.912;2023-04-03T15:20:38;4.57;;;1.42;;
7795;SDS011;3942;51.518;6.912;2023-04-03T15:25:40;8.25;;;2.00;;
7795;SDS011;3942;51.518;6.912;2023-04-03T15:30:44;4.13;;;1.55;;
7795;SDS011;3942;51.518;6.912;2023-04-03T15:35:46;7.85;;;2.83;;
7795;SDS011;3942;51.518;6.912;2023-04-03T15:40:48;4.70;;;1.02;;
7795;SDS011;3942;51.518;6.912;2023-04-03T15:45:52;4.28;;;1.65;;
7795;SDS011;3942;51.518;6.912;2023-04-03T15:50:54;2.58;;;1.27;;
7795;SDS011;3942;51.518;6.912;2023-04-03T15:55:56;3.85;;;1.60;;
7795;SDS011;3942;51.518;6.912;2023-04-03T16:01:00;3.85;;;1.58;;
7795;SDS011;3942;51.518;6.912;2023-04-03T16:06:02;3.83;;;1.63;;
7795;SDS011;3942;51.518;6.912;2023-04-03T16:11:04;8.13;;;2.75;;
7795;SDS011;3942;51.518;6.912;2023-04-03T16:16:08;2.58;;;1.30;;
7795;SDS011;3942;51.518;6.912;2023-04-03T16:21:10;4.75;;;1.92;;
7795;SDS011;3942;51.518;6.912;2023-04-03T16:26:13;3.97;;;1.40;;
7795;SDS011;3942;51.518;6.912;2023-04-03T16:31:18;5.28;;;2.30;;
7795;SDS011;3942;51.518;6.912;2023-04-03T16:36:20;5.15;;;1.52;;
7795;SDS011;3942;51.518;6.912;2023-04-03T16:41:22;16.38;;;8.88;;
7795;SDS011;3942;51.518;6.912;2023-04-03T16:46:26;5.38;;;1.95;;
7795;SDS011;3942;51.518;6.912;2023-04-03T16:51:28;4.57;;;2.05;;
7795;SDS011;3942;51.518;6.912;2023-04-03T16:56:31;3.47;;;1.65;;
7795;SDS011;3942;51.518;6.912;2023-04-03T17:01:35;7.50;;;1.67;;
7795;SDS011;3942;51.518;6.912;2023-04-03T17:06:37;6.70;;;1.70;;
7795;SDS011;3942;51.518;6.912;2023-04-03T17:11:39;4.82;;;1.95;;
7795;SDS011;3942;51.518;6.912;2023-04-03T17:16:42;7.30;;;2.30;;
7795;SDS011;3942;51.518;6.912;2023-04-03T17:21:45;6.10;;;2.53;;
7795;SDS011;3942;51.518;6.912;2023-04-03T17:26:47;4.60;;;1.77;;
7795;SDS011;3942;51.518;6.912;2023-04-03T17:31:50;5.85;;;2.35;;
7795;SDS011;3942;51.518;6.912;2023-04-03T17:36:52;4.55;;;1.75;;
7795;SDS011;3942;51.518;6.912;2023-04-03T17:41:55;3.92;;;1.80;;
7795;SDS011;3942;51.518;6.912;2023-04-03T17:46:58;8.02;;;2.30;;
7795;SDS011;3942;51.518;6.912;2023-04-03T17:52:02;6.70;;;2.67;;
7795;SDS011;3942;51.518;6.912;2023-04-03T17:57:04;4.53;;;2.55;;
7795;SDS011;3942;51.518;6.912;2023-04-03T18:02:09;4.72;;;1.77;;
7795;SDS011;3942;51.518;6.912;2023-04-03T18:07:11;4.32;;;2.20;;
7795;SDS011;3942;51.518;6.912;2023-04-03T18:12:13;4.85;;;1.85;;
7795;SDS011;3942;51.518;6.912;2023-04-03T18:17:16;5.53;;;2.22;;
7795;SDS011;3942;51.518;6.912;2023-04-03T18:22:20;6.70;;;2.92;;
7795;SDS011;3942;51.518;6.912;2023-04-03T18:27:24;8.40;;;3.00;;
7795;SDS011;3942;51.518;6.912;2023-04-03T18:32:28;7.25;;;3.50;;
7795;SDS011;3942;51.518;6.912;2023-04-03T18:37:30;6.40;;;2.45;;
7795;SDS011;3942;51.518;6.912;2023-04-03T18:42:32;4.70;;;2.00;;
7795;SDS011;3942;51.518;6.912;2023-04-03T18:47:36;4.53;;;2.25;;
7795;SDS011;3942;51.518;6.912;2023-04-03T18:52:38;2.33;;;1.52;;
7795;SDS011;3942;51.518;6.912;2023-04-03T18:57:40;5.28;;;2.78;;
7795;SDS011;3942;51.518;6.912;2023-04-03T19:02:44;4.65;;;2.97;;
7795;SDS011;3942;51.518;6.912;2023-04-03T19:07:46;6.25;;;2.33;;
7795;SDS011;3942;51.518;6.912;2023-04-03T19:12:49;10.80;;;3.65;;
7795;SDS011;3942;51.518;6.912;2023-04-03T19:17:52;8.50;;;3.85;;
7795;SDS011;3942;51.518;6.912;2023-04-03T19:22:54;10.55;;;4.07;;
7795;SDS011;3942;51.518;6.912;2023-04-03T19:27:56;15.52;;;4.88;;
7795;SDS011;3942;51.518;6.912;2023-04-03T19:33:01;8.35;;;4.18;;
7795;SDS011;3942;51.518;6.912;2023-04-03T19:38:03;7.18;;;3.22;;
7795;SDS011;3942;51.518;6.912;2023-04-03T19:43:05;8.07;;;2.78;;
7795;SDS011;3942;51.518;6.912;2023-04-03T19:48:08;6.90;;;3.45;;
7795;SDS011;3942;51.518;6.912;2023-04-03T19:53:10;11.52;;;4.25;;
7795;SDS011;3942;51.518;6.912;2023-04-03T19:58:17;8.80;;;2.85;;
7795;SDS011;3942;51.518;6.912;2023-04-03T20:03:21;6.45;;;2.33;;
7795;SDS011;3942;51.518;6.912;2023-04-03T20:08:23;6.47;;;3.08;;
7795;SDS011;3942;51.518;6.912;2023-04-03T20:13:27;7.80;;;3.45;;
7795;SDS011;3942;51.518;6.912;2023-04-03T20:18:30;9.27;;;2.60;;
7795;SDS011;3942;51.518;6.912;2023-04-03T20:23:33;4.43;;;2.40;;
7795;SDS011;3942;51.518;6.912;2023-04-03T20:28:36;8.20;;;3.63;;
7795;SDS011;3942;51.518;6.912;2023-04-03T20:33:39;6.25;;;1.95;;
7795;SDS011;3942;51.518;6.912;2023-04-03T20:38:42;5.28;;;2.05;;
7795;SDS011;3942;51.518;6.912;2023-04-03T20:43:44;2.47;;;1.58;;
7795;SDS011;3942;51.518;6.912;2023-04-03T20:48:48;7.45;;;2.10;;
7795;SDS011;3942;51.518;6.912;2023-04-03T20:53:50;6.18;;;2.40;;
7795;SDS011;3942;51.518;6.912;2023-04-03T20:58:53;4.32;;;2.33;;
7795;SDS011;3942;51.518;6.912;2023-04-03T21:03:59;6.47;;;2.50;;
7795;SDS011;3942;51.518;6.912;2023-04-03T21:20:22;11.75;;;3.63;;
7795;SDS011;3942;51.518;6.912;2023-04-03T21:25:25;5.93;;;2.55;;
7795;SDS011;3942;51.518;6.912;2023-04-03T21:30:28;8.60;;;2.63;;
7795;SDS011;3942;51.518;6.912;2023-04-03T21:35:31;3.58;;;2.38;;
7795;SDS011;3942;51.518;6.912;2023-04-03T21:40:34;9.50;;;3.08;;
7795;SDS011;3942;51.518;6.912;2023-04-03T21:45:36;5.22;;;1.92;;
7795;SDS011;3942;51.518;6.912;2023-04-03T21:50:39;5.20;;;2.30;;
7795;SDS011;3942;51.518;6.912;2023-04-03T21:55:41;6.13;;;2.88;;
7795;SDS011;3942;51.518;6.912;2023-04-03T22:00:43;4.60;;;2.10;;
7795;SDS011;3942;51.518;6.912;2023-04-03T22:05:47;6.57;;;2.15;;
7795;SDS011;3942;51.518;6.912;2023-04-03T22:10:49;6.75;;;2.80;;
7795;SDS011;3942;51.518;6.912;2023-04-03T22:15:51;6.25;;;2.53;;
7795;SDS011;3942;51.518;6.912;2023-04-03T22:20:55;6.85;;;2.22;;
7795;SDS011;3942;51.518;6.912;2023-04-03T22:25:58;5.53;;;2.38;;
7795;SDS011;3942;51.518;6.912;2023-04-03T22:31:00;10.70;;;3.25;;
7795;SDS011;3942;51.518;6.912;2023-04-03T22:36:04;9.82;;;3.10;;
7795;SDS011;3942;51.518;6.912;2023-04-03T22:41:08;8.88;;;2.78;;
7795;SDS011;3942;51.518;6.912;2023-04-03T22:46:10;8.07;;;3.67;;
7795;SDS011;3942;51.518;6.912;2023-04-03T22:51:14;13.65;;;6.25;;
7795;SDS011;3942;51.518;6.912;2023-04-03T22:56:16;18.02;;;6.15;;
7795;SDS011;3942;51.518;6.912;2023-04-03T23:01:18;6.57;;;3.30;;
7795;SDS011;3942;51.518;6.912;2023-04-03T23:06:24;7.32;;;3.72;;
7795;SDS011;3942;51.518;6.912;2023-04-03T23:11:27;7.88;;;2.72;;
7795;SDS011;3942;51.518;6.912;2023-04-03T23:16:29;6.25;;;3.15;;
7795;SDS011;3942;51.518;6.912;2023-04-03T23:21:33;6.85;;;3.00;;
7795;SDS011;3942;51.518;6.912;2023-04-03T23:26:35;13.95;;;4.10;;
7795;SDS011;3942;51.518;6.912;2023-04-03T23:31:37;9.35;;;3.08;;
7795;SDS011;3942;51.518;6.912;2023-04-03T23:36:40;8.77;;;3.33;;
7795;SDS011;3942;51.518;6.912;2023-04-03T23:41:42;7.15;;;3.00;;
7795;SDS011;3942;51.518;6.912;2023-04-03T23:46:44;6.15;;;3.40;;
7795;SDS011;3942;51.518;6.912;2023-04-03T23:51:48;7.78;;;3.53;;
7795;SDS011;3942;51.518;6.912;2023-04-03T23:56:51;8.15;;;3.33;;
